sensor_id;sensor_type;location;lat;lon;timestamp;P1;durP1;ratioP1;P2;durP2;ratioP2
11187;SDS011;5650;52.700;7.306;2022-09-17T00:01:36;25.55;;;4.00;;
11187;SDS011;5650;52.700;7.306;2022-09-17T00:04:07;24.58;;;4.50;;
11187;SDS011;5650;52.700;7.306;2022-09-17T00:06:37;22.48;;;4.28;;
11187;SDS011;5650;52.700;7.306;2022-09-17T00:09:05;23.20;;;4.32;;
11187;SDS011;5650;52.700;7.306;2022-09-17T00:11:37;22.48;;;5.00;;
11187;SDS011;5650;52.700;7.306;2022-09-17T00:14:06;28.80;;;4.63;;
11187;SDS011;5650;52.700;7.306;2022-09-17T00:16:41;20.33;;;3.80;;
11187;SDS011;5650;52.700;7.306;2022-09-17T00:19:12;28.27;;;4.68;;
11187;SDS011;5650;52.700;7.306;2022-09-17T00:21:42;24.42;;;4.55;;
11187;SDS011;5650;52.700;7.306;2022-09-17T00:24:10;24.02;;;5.13;;
11187;SDS011;5650;52.700;7.306;2022-09-17T00:26:39;21.58;;;3.60;;
11187;SDS011;5650;52.700;7.306;2022-09-17T00:29:06;23.67;;;3.95;;
11187;SDS011;5650;52.700;7.306;2022-09-17T00:31:36;26.48;;;4.35;;
11187;SDS011;5650;52.700;7.306;2022-09-17T00:34:03;30.90;;;5.38;;
11187;SDS011;5650;52.700;7.306;2022-09-17T00:36:33;29.23;;;4.45;;
11187;SDS011;5650;52.700;7.306;2022-09-17T00:39:06;21.17;;;4.10;;
11187;SDS011;5650;52.700;7.306;2022-09-17T00:41:35;21.77;;;4.25;;
11187;SDS011;5650;52.700;7.306;2022-09-17T00:47:06;24.92;;;4.70;;
11187;SDS011;5650;52.700;7.306;2022-09-17T00:49:37;25.48;;;4.57;;
11187;SDS011;5650;52.700;7.306;2022-09-17T00:52:05;26.60;;;4.47;;
11187;SDS011;5650;52.700;7.306;2022-09-17T00:54:38;20.67;;;4.13;;
11187;SDS011;5650;52.700;7.306;2022-09-17T00:57:07;23.52;;;4.25;;
11187;SDS011;5650;52.700;7.306;2022-09-17T00:59:34;29.52;;;3.55;;
11187;SDS011;5650;52.700;7.306;2022-09-17T01:02:04;19.00;;;3.97;;
11187;SDS011;5650;52.700;7.306;2022-09-17T01:04:34;30.08;;;4.47;;
11187;SDS011;5650;52.700;7.306;2022-09-17T01:07:03;19.35;;;4.40;;
11187;SDS011;5650;52.700;7.306;2022-09-17T01:09:35;20.77;;;4.30;;
11187;SDS011;5650;52.700;7.306;2022-09-17T01:12:14;25.65;;;3.92;;
11187;SDS011;5650;52.700;7.306;2022-09-17T01:14:55;26.95;;;4.70;;
11187;SDS011;5650;52.700;7.306;2022-09-17T01:17:33;33.15;;;5.30;;
11187;SDS011;5650;52.700;7.306;2022-09-17T01:20:15;20.75;;;3.35;;
11187;SDS011;5650;52.700;7.306;2022-09-17T01:23:08;25.55;;;4.60;;
11187;SDS011;5650;52.700;7.306;2022-09-17T01:25:58;20.65;;;3.80;;
11187;SDS011;5650;52.700;7.306;2022-09-17T01:28:38;24.20;;;4.32;;
11187;SDS011;5650;52.700;7.306;2022-09-17T01:31:25;35.45;;;5.63;;
11187;SDS011;5650;52.700;7.306;2022-09-17T01:34:01;23.45;;;3.95;;
11187;SDS011;5650;52.700;7.306;2022-09-17T01:36:41;21.45;;;4.22;;
11187;SDS011;5650;52.700;7.306;2022-09-17T01:39:17;34.05;;;4.70;;
11187;SDS011;5650;52.700;7.306;2022-09-17T01:41:55;22.02;;;3.97;;
11187;SDS011;5650;52.700;7.306;2022-09-17T01:44:28;22.40;;;3.92;;
11187;SDS011;5650;52.700;7.306;2022-09-17T01:47:03;24.50;;;3.65;;
11187;SDS011;5650;52.700;7.306;2022-09-17T01:49:37;23.77;;;3.90;;
11187;SDS011;5650;52.700;7.306;2022-09-17T01:52:06;21.52;;;4.22;;
11187;SDS011;5650;52.700;7.306;2022-09-17T01:54:35;22.42;;;3.50;;
11187;SDS011;5650;52.700;7.306;2022-09-17T01:57:07;21.38;;;3.90;;
11187;SDS011;5650;52.700;7.306;2022-09-17T01:59:37;21.00;;;3.72;;
11187;SDS011;5650;52.700;7.306;2022-09-17T02:02:10;19.45;;;3.38;;
11187;SDS011;5650;52.700;7.306;2022-09-17T02:04:45;18.35;;;3.63;;
11187;SDS011;5650;52.700;7.306;2022-09-17T02:07:18;18.33;;;3.00;;
11187;SDS011;5650;52.700;7.306;2022-09-17T02:09:48;17.40;;;3.55;;
11187;SDS011;5650;52.700;7.306;2022-09-17T02:12:19;14.25;;;3.13;;
11187;SDS011;5650;52.700;7.306;2022-09-17T02:14:50;26.80;;;3.65;;
11187;SDS011;5650;52.700;7.306;2022-09-17T02:17:22;21.67;;;3.78;;
11187;SDS011;5650;52.700;7.306;2022-09-17T02:19:52;20.25;;;3.75;;
11187;SDS011;5650;52.700;7.306;2022-09-17T02:22:24;18.38;;;3.47;;
11187;SDS011;5650;52.700;7.306;2022-09-17T02:24:59;19.75;;;3.42;;
11187;SDS011;5650;52.700;7.306;2022-09-17T02:27:33;18.10;;;3.65;;
11187;SDS011;5650;52.700;7.306;2022-09-17T02:30:09;12.80;;;2.90;;
11187;SDS011;5650;52.700;7.306;2022-09-17T02:32:37;19.58;;;3.63;;
11187;SDS011;5650;52.700;7.306;2022-09-17T02:35:06;27.65;;;4.05;;
11187;SDS011;5650;52.700;7.306;2022-09-17T02:37:34;21.42;;;3.58;;
11187;SDS011;5650;52.700;7.306;2022-09-17T02:40:04;19.42;;;4.35;;
11187;SDS011;5650;52.700;7.306;2022-09-17T02:42:38;19.67;;;3.45;;
11187;SDS011;5650;52.700;7.306;2022-09-17T02:45:34;24.73;;;4.18;;
11187;SDS011;5650;52.700;7.306;2022-09-17T02:51:17;18.83;;;3.30;;
11187;SDS011;5650;52.700;7.306;2022-09-17T02:53:55;21.40;;;3.85;;
11187;SDS011;5650;52.700;7.306;2022-09-17T02:56:34;19.58;;;3.58;;
11187;SDS011;5650;52.700;7.306;2022-09-17T02:59:11;26.70;;;3.63;;
11187;SDS011;5650;52.700;7.306;2022-09-17T03:01:45;18.70;;;3.42;;
11187;SDS011;5650;52.700;7.306;2022-09-17T03:04:21;21.90;;;3.75;;
11187;SDS011;5650;52.700;7.306;2022-09-17T03:06:51;21.42;;;3.78;;
11187;SDS011;5650;52.700;7.306;2022-09-17T03:09:18;23.67;;;3.83;;
11187;SDS011;5650;52.700;7.306;2022-09-17T03:11:45;18.55;;;3.88;;
11187;SDS011;5650;52.700;7.306;2022-09-17T03:14:13;23.92;;;3.45;;
11187;SDS011;5650;52.700;7.306;2022-09-17T03:16:45;20.92;;;3.38;;
11187;SDS011;5650;52.700;7.306;2022-09-17T03:19:12;20.83;;;3.65;;
11187;SDS011;5650;52.700;7.306;2022-09-17T03:21:41;21.75;;;3.80;;
11187;SDS011;5650;52.700;7.306;2022-09-17T03:24:08;26.08;;;5.03;;
11187;SDS011;5650;52.700;7.306;2022-09-17T03:26:35;21.98;;;3.63;;
11187;SDS011;5650;52.700;7.306;2022-09-17T03:29:03;20.92;;;4.07;;
11187;SDS011;5650;52.700;7.306;2022-09-17T03:31:30;21.23;;;3.85;;
11187;SDS011;5650;52.700;7.306;2022-09-17T03:33:57;22.60;;;4.47;;
11187;SDS011;5650;52.700;7.306;2022-09-17T03:36:24;21.30;;;3.97;;
11187;SDS011;5650;52.700;7.306;2022-09-17T03:38:54;18.33;;;3.80;;
11187;SDS011;5650;52.700;7.306;2022-09-17T03:41:22;18.88;;;3.58;;
11187;SDS011;5650;52.700;7.306;2022-09-17T03:43:50;18.25;;;3.67;;
11187;SDS011;5650;52.700;7.306;2022-09-17T03:46:19;16.55;;;3.65;;
11187;SDS011;5650;52.700;7.306;2022-09-17T03:48:49;19.27;;;3.83;;
11187;SDS011;5650;52.700;7.306;2022-09-17T03:51:19;24.42;;;3.97;;
11187;SDS011;5650;52.700;7.306;2022-09-17T03:53:46;18.73;;;3.55;;
11187;SDS011;5650;52.700;7.306;2022-09-17T03:56:14;20.77;;;3.33;;
11187;SDS011;5650;52.700;7.306;2022-09-17T03:58:44;20.55;;;3.67;;
11187;SDS011;5650;52.700;7.306;2022-09-17T04:01:11;20.58;;;3.80;;
11187;SDS011;5650;52.700;7.306;2022-09-17T04:03:44;24.10;;;4.22;;
11187;SDS011;5650;52.700;7.306;2022-09-17T04:06:11;17.58;;;3.53;;
11187;SDS011;5650;52.700;7.306;2022-09-17T04:08:38;17.55;;;3.10;;
11187;SDS011;5650;52.700;7.306;2022-09-17T04:11:07;22.52;;;3.85;;
11187;SDS011;5650;52.700;7.306;2022-09-17T04:16:21;15.82;;;3.63;;
11187;SDS011;5650;52.700;7.306;2022-09-17T04:18:54;23.65;;;3.55;;
11187;SDS011;5650;52.700;7.306;2022-09-17T04:21:21;20.88;;;3.22;;
11187;SDS011;5650;52.700;7.306;2022-09-17T04:23:50;20.50;;;2.80;;
11187;SDS011;5650;52.700;7.306;2022-09-17T04:26:17;17.38;;;3.28;;
11187;SDS011;5650;52.700;7.306;2022-09-17T04:28:44;20.20;;;3.17;;
11187;SDS011;5650;52.700;7.306;2022-09-17T04:31:16;23.27;;;3.88;;
11187;SDS011;5650;52.700;7.306;2022-09-17T04:33:43;19.15;;;3.33;;
11187;SDS011;5650;52.700;7.306;2022-09-17T04:36:10;21.10;;;3.28;;
11187;SDS011;5650;52.700;7.306;2022-09-17T04:38:37;14.82;;;3.13;;
11187;SDS011;5650;52.700;7.306;2022-09-17T04:41:05;21.88;;;3.75;;
11187;SDS011;5650;52.700;7.306;2022-09-17T04:43:32;19.95;;;3.10;;
11187;SDS011;5650;52.700;7.306;2022-09-17T04:45:59;17.52;;;3.10;;
11187;SDS011;5650;52.700;7.306;2022-09-17T04:48:28;20.85;;;3.45;;
11187;SDS011;5650;52.700;7.306;2022-09-17T04:51:01;13.52;;;3.08;;
11187;SDS011;5650;52.700;7.306;2022-09-17T04:53:28;15.45;;;3.00;;
11187;SDS011;5650;52.700;7.306;2022-09-17T04:55:55;24.65;;;3.20;;
11187;SDS011;5650;52.700;7.306;2022-09-17T04:58:22;19.20;;;3.88;;
11187;SDS011;5650;52.700;7.306;2022-09-17T05:00:49;16.20;;;2.75;;
11187;SDS011;5650;52.700;7.306;2022-09-17T05:03:22;13.43;;;2.70;;
11187;SDS011;5650;52.700;7.306;2022-09-17T05:05:50;16.13;;;2.58;;
11187;SDS011;5650;52.700;7.306;2022-09-17T05:08:20;15.02;;;2.60;;
11187;SDS011;5650;52.700;7.306;2022-09-17T05:10:48;14.13;;;3.00;;
11187;SDS011;5650;52.700;7.306;2022-09-17T05:13:16;15.88;;;2.85;;
11187;SDS011;5650;52.700;7.306;2022-09-17T05:15:43;14.60;;;2.78;;
11187;SDS011;5650;52.700;7.306;2022-09-17T05:18:11;13.75;;;2.80;;
11187;SDS011;5650;52.700;7.306;2022-09-17T05:20:38;15.60;;;2.60;;
11187;SDS011;5650;52.700;7.306;2022-09-17T05:23:10;20.65;;;3.00;;
11187;SDS011;5650;52.700;7.306;2022-09-17T05:25:37;18.15;;;3.42;;
11187;SDS011;5650;52.700;7.306;2022-09-17T05:28:04;17.55;;;2.90;;
11187;SDS011;5650;52.700;7.306;2022-09-17T05:30:31;18.63;;;2.70;;
11187;SDS011;5650;52.700;7.306;2022-09-17T05:33:03;13.60;;;2.70;;
11187;SDS011;5650;52.700;7.306;2022-09-17T05:35:31;25.02;;;3.15;;
11187;SDS011;5650;52.700;7.306;2022-09-17T05:38:00;12.40;;;2.85;;
11187;SDS011;5650;52.700;7.306;2022-09-17T05:40:30;11.18;;;2.47;;
11187;SDS011;5650;52.700;7.306;2022-09-17T05:42:58;15.45;;;2.58;;
11187;SDS011;5650;52.700;7.306;2022-09-17T05:45:26;12.48;;;2.00;;
11187;SDS011;5650;52.700;7.306;2022-09-17T05:47:53;10.95;;;2.88;;
11187;SDS011;5650;52.700;7.306;2022-09-17T05:50:21;11.45;;;2.22;;
11187;SDS011;5650;52.700;7.306;2022-09-17T05:52:49;12.52;;;2.80;;
11187;SDS011;5650;52.700;7.306;2022-09-17T05:55:16;11.45;;;2.55;;
11187;SDS011;5650;52.700;7.306;2022-09-17T05:57:44;17.02;;;2.38;;
11187;SDS011;5650;52.700;7.306;2022-09-17T06:00:12;12.38;;;3.17;;
11187;SDS011;5650;52.700;7.306;2022-09-17T06:02:40;13.35;;;2.72;;
11187;SDS011;5650;52.700;7.306;2022-09-17T06:05:10;14.32;;;2.97;;
11187;SDS011;5650;52.700;7.306;2022-09-17T06:07:43;17.70;;;2.55;;
11187;SDS011;5650;52.700;7.306;2022-09-17T06:10:10;12.88;;;2.38;;
11187;SDS011;5650;52.700;7.306;2022-09-17T06:12:40;12.02;;;2.42;;
11187;SDS011;5650;52.700;7.306;2022-09-17T06:15:09;10.82;;;2.65;;
11187;SDS011;5650;52.700;7.306;2022-09-17T06:17:38;16.10;;;2.78;;
11187;SDS011;5650;52.700;7.306;2022-09-17T06:20:07;15.57;;;2.85;;
11187;SDS011;5650;52.700;7.306;2022-09-17T06:22:41;9.15;;;2.40;;
11187;SDS011;5650;52.700;7.306;2022-09-17T06:25:08;10.57;;;2.10;;
11187;SDS011;5650;52.700;7.306;2022-09-17T06:27:36;16.63;;;2.78;;
11187;SDS011;5650;52.700;7.306;2022-09-17T06:30:03;12.88;;;2.53;;
11187;SDS011;5650;52.700;7.306;2022-09-17T06:32:33;11.68;;;2.58;;
11187;SDS011;5650;52.700;7.306;2022-09-17T06:35:00;13.80;;;2.70;;
11187;SDS011;5650;52.700;7.306;2022-09-17T06:37:30;12.13;;;2.42;;
11187;SDS011;5650;52.700;7.306;2022-09-17T06:40:01;10.45;;;2.67;;
11187;SDS011;5650;52.700;7.306;2022-09-17T06:42:28;12.05;;;2.40;;
11187;SDS011;5650;52.700;7.306;2022-09-17T06:44:58;16.60;;;2.88;;
11187;SDS011;5650;52.700;7.306;2022-09-17T06:47:25;21.02;;;2.72;;
11187;SDS011;5650;52.700;7.306;2022-09-17T06:49:56;15.65;;;3.08;;
11187;SDS011;5650;52.700;7.306;2022-09-17T06:52:26;9.70;;;2.50;;
11187;SDS011;5650;52.700;7.306;2022-09-17T06:54:55;11.73;;;2.92;;
11187;SDS011;5650;52.700;7.306;2022-09-17T06:57:22;11.40;;;2.83;;
11187;SDS011;5650;52.700;7.306;2022-09-17T06:59:49;11.48;;;2.92;;
11187;SDS011;5650;52.700;7.306;2022-09-17T07:02:16;12.20;;;2.08;;
11187;SDS011;5650;52.700;7.306;2022-09-17T07:04:43;11.68;;;2.28;;
11187;SDS011;5650;52.700;7.306;2022-09-17T07:07:12;10.20;;;2.38;;
11187;SDS011;5650;52.700;7.306;2022-09-17T07:09:39;10.80;;;2.22;;
11187;SDS011;5650;52.700;7.306;2022-09-17T07:12:07;10.98;;;2.30;;
11187;SDS011;5650;52.700;7.306;2022-09-17T07:14:34;6.78;;;1.75;;
11187;SDS011;5650;52.700;7.306;2022-09-17T07:17:01;4.65;;;1.30;;
11187;SDS011;5650;52.700;7.306;2022-09-17T07:19:28;6.40;;;1.63;;
11187;SDS011;5650;52.700;7.306;2022-09-17T07:21:55;7.43;;;1.50;;
11187;SDS011;5650;52.700;7.306;2022-09-17T07:24:24;4.35;;;1.38;;
11187;SDS011;5650;52.700;7.306;2022-09-17T07:26:51;4.50;;;1.27;;
11187;SDS011;5650;52.700;7.306;2022-09-17T07:29:18;6.00;;;1.65;;
11187;SDS011;5650;52.700;7.306;2022-09-17T07:31:47;6.38;;;1.42;;
11187;SDS011;5650;52.700;7.306;2022-09-17T07:34:14;4.28;;;1.20;;
11187;SDS011;5650;52.700;7.306;2022-09-17T07:36:41;3.92;;;1.38;;
11187;SDS011;5650;52.700;7.306;2022-09-17T07:39:09;6.68;;;1.65;;
11187;SDS011;5650;52.700;7.306;2022-09-17T07:41:38;3.40;;;1.15;;
11187;SDS011;5650;52.700;7.306;2022-09-17T07:44:05;3.17;;;1.23;;
11187;SDS011;5650;52.700;7.306;2022-09-17T07:46:33;5.38;;;1.60;;
11187;SDS011;5650;52.700;7.306;2022-09-17T07:49:01;4.22;;;1.50;;
11187;SDS011;5650;52.700;7.306;2022-09-17T07:51:28;4.78;;;1.08;;
11187;SDS011;5650;52.700;7.306;2022-09-17T07:53:56;4.53;;;1.52;;
11187;SDS011;5650;52.700;7.306;2022-09-17T07:56:24;5.55;;;1.48;;
11187;SDS011;5650;52.700;7.306;2022-09-17T07:58:54;6.70;;;1.65;;
11187;SDS011;5650;52.700;7.306;2022-09-17T08:01:23;6.22;;;1.63;;
11187;SDS011;5650;52.700;7.306;2022-09-17T08:03:51;6.07;;;1.65;;
11187;SDS011;5650;52.700;7.306;2022-09-17T08:06:20;7.15;;;1.90;;
11187;SDS011;5650;52.700;7.306;2022-09-17T08:08:50;7.00;;;1.77;;
11187;SDS011;5650;52.700;7.306;2022-09-17T08:11:18;9.23;;;2.10;;
11187;SDS011;5650;52.700;7.306;2022-09-17T08:13:46;9.35;;;1.88;;
11187;SDS011;5650;52.700;7.306;2022-09-17T08:16:15;7.97;;;1.75;;
11187;SDS011;5650;52.700;7.306;2022-09-17T08:18:43;8.35;;;1.80;;
11187;SDS011;5650;52.700;7.306;2022-09-17T08:21:12;6.30;;;2.08;;
11187;SDS011;5650;52.700;7.306;2022-09-17T08:23:41;10.35;;;2.30;;
11187;SDS011;5650;52.700;7.306;2022-09-17T08:26:10;9.35;;;1.77;;
11187;SDS011;5650;52.700;7.306;2022-09-17T08:28:39;8.68;;;1.73;;
11187;SDS011;5650;52.700;7.306;2022-09-17T08:31:10;8.13;;;1.83;;
11187;SDS011;5650;52.700;7.306;2022-09-17T08:33:39;9.43;;;2.13;;
11187;SDS011;5650;52.700;7.306;2022-09-17T08:36:07;8.18;;;2.17;;
11187;SDS011;5650;52.700;7.306;2022-09-17T08:38:36;10.02;;;1.98;;
11187;SDS011;5650;52.700;7.306;2022-09-17T08:41:08;11.25;;;2.15;;
11187;SDS011;5650;52.700;7.306;2022-09-17T08:43:49;5.38;;;1.88;;
11187;SDS011;5650;52.700;7.306;2022-09-17T08:46:24;11.10;;;2.30;;
11187;SDS011;5650;52.700;7.306;2022-09-17T08:48:55;7.65;;;1.77;;
11187;SDS011;5650;52.700;7.306;2022-09-17T08:51:31;12.18;;;2.15;;
11187;SDS011;5650;52.700;7.306;2022-09-17T08:54:05;15.50;;;2.63;;
11187;SDS011;5650;52.700;7.306;2022-09-17T08:56:38;10.65;;;2.20;;
11187;SDS011;5650;52.700;7.306;2022-09-17T08:59:12;8.30;;;2.35;;
11187;SDS011;5650;52.700;7.306;2022-09-17T09:01:48;10.15;;;2.00;;
11187;SDS011;5650;52.700;7.306;2022-09-17T09:04:34;6.95;;;2.00;;
11187;SDS011;5650;52.700;7.306;2022-09-17T09:07:22;7.50;;;1.83;;
11187;SDS011;5650;52.700;7.306;2022-09-17T09:09:54;7.03;;;1.95;;
11187;SDS011;5650;52.700;7.306;2022-09-17T09:12:34;7.13;;;1.73;;
11187;SDS011;5650;52.700;7.306;2022-09-17T09:15:03;7.85;;;1.75;;
11187;SDS011;5650;52.700;7.306;2022-09-17T09:17:34;6.80;;;1.58;;
11187;SDS011;5650;52.700;7.306;2022-09-17T09:20:18;5.97;;;1.25;;
11187;SDS011;5650;52.700;7.306;2022-09-17T09:22:49;6.97;;;1.90;;
11187;SDS011;5650;52.700;7.306;2022-09-17T09:25:18;6.15;;;1.60;;
11187;SDS011;5650;52.700;7.306;2022-09-17T09:30:42;3.95;;;1.20;;
11187;SDS011;5650;52.700;7.306;2022-09-17T09:33:22;6.03;;;1.20;;
11187;SDS011;5650;52.700;7.306;2022-09-17T09:35:55;3.78;;;1.13;;
11187;SDS011;5650;52.700;7.306;2022-09-17T09:38:23;3.05;;;1.10;;
11187;SDS011;5650;52.700;7.306;2022-09-17T09:40:59;3.67;;;1.23;;
11187;SDS011;5650;52.700;7.306;2022-09-17T09:43:33;3.08;;;0.98;;
11187;SDS011;5650;52.700;7.306;2022-09-17T09:46:22;6.72;;;1.27;;
11187;SDS011;5650;52.700;7.306;2022-09-17T09:49:10;4.45;;;1.15;;
11187;SDS011;5650;52.700;7.306;2022-09-17T09:51:47;3.10;;;1.00;;
11187;SDS011;5650;52.700;7.306;2022-09-17T09:54:31;5.55;;;1.33;;
11187;SDS011;5650;52.700;7.306;2022-09-17T09:57:13;6.00;;;1.38;;
11187;SDS011;5650;52.700;7.306;2022-09-17T09:59:43;6.32;;;1.90;;
11187;SDS011;5650;52.700;7.306;2022-09-17T10:02:10;5.85;;;1.63;;
11187;SDS011;5650;52.700;7.306;2022-09-17T10:04:37;6.82;;;1.80;;
11187;SDS011;5650;52.700;7.306;2022-09-17T10:07:06;8.60;;;1.83;;
11187;SDS011;5650;52.700;7.306;2022-09-17T10:09:35;7.13;;;1.65;;
11187;SDS011;5650;52.700;7.306;2022-09-17T10:12:08;4.43;;;1.67;;
11187;SDS011;5650;52.700;7.306;2022-09-17T10:14:42;7.40;;;1.50;;
11187;SDS011;5650;52.700;7.306;2022-09-17T10:17:13;10.75;;;1.67;;
11187;SDS011;5650;52.700;7.306;2022-09-17T10:19:46;5.40;;;1.92;;
11187;SDS011;5650;52.700;7.306;2022-09-17T10:22:46;4.68;;;1.40;;
11187;SDS011;5650;52.700;7.306;2022-09-17T10:28:15;6.30;;;1.73;;
11187;SDS011;5650;52.700;7.306;2022-09-17T10:31:05;7.07;;;1.95;;
11187;SDS011;5650;52.700;7.306;2022-09-17T10:33:35;6.60;;;1.50;;
11187;SDS011;5650;52.700;7.306;2022-09-17T10:36:06;6.90;;;1.80;;
11187;SDS011;5650;52.700;7.306;2022-09-17T10:38:39;8.55;;;1.90;;
11187;SDS011;5650;52.700;7.306;2022-09-17T10:41:08;6.88;;;1.60;;
11187;SDS011;5650;52.700;7.306;2022-09-17T10:43:45;8.45;;;1.50;;
11187;SDS011;5650;52.700;7.306;2022-09-17T10:46:20;10.95;;;1.75;;
11187;SDS011;5650;52.700;7.306;2022-09-17T10:48:55;5.43;;;1.20;;
11187;SDS011;5650;52.700;7.306;2022-09-17T10:51:30;5.20;;;1.40;;
11187;SDS011;5650;52.700;7.306;2022-09-17T10:54:05;7.70;;;1.40;;
11187;SDS011;5650;52.700;7.306;2022-09-17T10:56:48;3.72;;;1.55;;
11187;SDS011;5650;52.700;7.306;2022-09-17T10:59:27;4.60;;;1.25;;
11187;SDS011;5650;52.700;7.306;2022-09-17T11:02:08;5.68;;;1.30;;
11187;SDS011;5650;52.700;7.306;2022-09-17T11:04:49;3.42;;;1.02;;
11187;SDS011;5650;52.700;7.306;2022-09-17T11:07:27;5.05;;;1.48;;
11187;SDS011;5650;52.700;7.306;2022-09-17T11:10:12;4.30;;;1.50;;
11187;SDS011;5650;52.700;7.306;2022-09-17T11:12:51;6.78;;;1.50;;
11187;SDS011;5650;52.700;7.306;2022-09-17T11:15:35;7.25;;;1.80;;
11187;SDS011;5650;52.700;7.306;2022-09-17T11:23:55;5.63;;;1.48;;
11187;SDS011;5650;52.700;7.306;2022-09-17T11:26:47;6.18;;;1.58;;
11187;SDS011;5650;52.700;7.306;2022-09-17T11:29:26;5.20;;;1.35;;
11187;SDS011;5650;52.700;7.306;2022-09-17T11:32:12;6.63;;;1.30;;
11187;SDS011;5650;52.700;7.306;2022-09-17T11:34:51;6.68;;;1.45;;
11187;SDS011;5650;52.700;7.306;2022-09-17T11:37:24;8.38;;;1.73;;
11187;SDS011;5650;52.700;7.306;2022-09-17T11:39:57;4.72;;;1.30;;
11187;SDS011;5650;52.700;7.306;2022-09-17T11:42:30;7.68;;;1.67;;
11187;SDS011;5650;52.700;7.306;2022-09-17T11:45:02;7.90;;;1.30;;
11187;SDS011;5650;52.700;7.306;2022-09-17T11:47:36;9.30;;;1.80;;
11187;SDS011;5650;52.700;7.306;2022-09-17T11:50:19;7.78;;;1.52;;
11187;SDS011;5650;52.700;7.306;2022-09-17T11:52:54;7.30;;;2.00;;
11187;SDS011;5650;52.700;7.306;2022-09-17T11:55:29;5.15;;;1.70;;
11187;SDS011;5650;52.700;7.306;2022-09-17T11:58:06;10.10;;;1.55;;
11187;SDS011;5650;52.700;7.306;2022-09-17T12:00:41;7.97;;;1.70;;
11187;SDS011;5650;52.700;7.306;2022-09-17T12:03:15;7.40;;;1.55;;
11187;SDS011;5650;52.700;7.306;2022-09-17T12:05:48;6.88;;;1.52;;
11187;SDS011;5650;52.700;7.306;2022-09-17T12:08:20;8.75;;;1.65;;
11187;SDS011;5650;52.700;7.306;2022-09-17T12:10:50;7.57;;;1.67;;
11187;SDS011;5650;52.700;7.306;2022-09-17T12:13:29;9.80;;;1.73;;
11187;SDS011;5650;52.700;7.306;2022-09-17T12:16:03;11.48;;;1.85;;
11187;SDS011;5650;52.700;7.306;2022-09-17T12:18:43;8.27;;;1.80;;
11187;SDS011;5650;52.700;7.306;2022-09-17T12:21:15;8.43;;;1.95;;
11187;SDS011;5650;52.700;7.306;2022-09-17T12:23:47;8.00;;;1.75;;
11187;SDS011;5650;52.700;7.306;2022-09-17T12:26:29;11.18;;;2.55;;
11187;SDS011;5650;52.700;7.306;2022-09-17T12:29:10;9.35;;;1.63;;
11187;SDS011;5650;52.700;7.306;2022-09-17T12:31:47;10.32;;;1.60;;
11187;SDS011;5650;52.700;7.306;2022-09-17T12:34:23;7.80;;;1.85;;
11187;SDS011;5650;52.700;7.306;2022-09-17T12:36:58;8.88;;;2.22;;
11187;SDS011;5650;52.700;7.306;2022-09-17T12:39:44;8.70;;;2.00;;
11187;SDS011;5650;52.700;7.306;2022-09-17T12:42:37;9.40;;;2.45;;
11187;SDS011;5650;52.700;7.306;2022-09-17T12:45:24;11.60;;;2.50;;
11187;SDS011;5650;52.700;7.306;2022-09-17T12:48:00;8.40;;;2.40;;
11187;SDS011;5650;52.700;7.306;2022-09-17T12:50:44;8.23;;;1.70;;
11187;SDS011;5650;52.700;7.306;2022-09-17T12:53:21;10.55;;;2.22;;
11187;SDS011;5650;52.700;7.306;2022-09-17T12:55:59;9.45;;;2.08;;
11187;SDS011;5650;52.700;7.306;2022-09-17T12:58:37;7.97;;;2.00;;
11187;SDS011;5650;52.700;7.306;2022-09-17T13:01:18;12.77;;;2.17;;
11187;SDS011;5650;52.700;7.306;2022-09-17T13:03:52;8.75;;;2.22;;
11187;SDS011;5650;52.700;7.306;2022-09-17T13:06:31;8.70;;;2.00;;
11187;SDS011;5650;52.700;7.306;2022-09-17T13:09:35;8.60;;;2.33;;
11187;SDS011;5650;52.700;7.306;2022-09-17T13:12:26;13.27;;;2.50;;
11187;SDS011;5650;52.700;7.306;2022-09-17T13:15:03;15.05;;;2.15;;
11187;SDS011;5650;52.700;7.306;2022-09-17T13:17:52;11.50;;;2.95;;
11187;SDS011;5650;52.700;7.306;2022-09-17T13:20:25;12.95;;;2.80;;
11187;SDS011;5650;52.700;7.306;2022-09-17T13:22:57;7.13;;;2.03;;
11187;SDS011;5650;52.700;7.306;2022-09-17T13:25:24;11.23;;;2.03;;
11187;SDS011;5650;52.700;7.306;2022-09-17T13:28:02;11.80;;;2.65;;
11187;SDS011;5650;52.700;7.306;2022-09-17T13:36:37;10.27;;;3.05;;
11187;SDS011;5650;52.700;7.306;2022-09-17T13:39:10;10.20;;;1.95;;
11187;SDS011;5650;52.700;7.306;2022-09-17T13:42:09;15.70;;;2.75;;
11187;SDS011;5650;52.700;7.306;2022-09-17T13:44:41;15.20;;;2.55;;
11187;SDS011;5650;52.700;7.306;2022-09-17T13:47:23;9.35;;;1.98;;
11187;SDS011;5650;52.700;7.306;2022-09-17T13:49:56;11.38;;;2.42;;
11187;SDS011;5650;52.700;7.306;2022-09-17T13:52:31;10.57;;;2.70;;
11187;SDS011;5650;52.700;7.306;2022-09-17T13:55:29;13.57;;;2.88;;
11187;SDS011;5650;52.700;7.306;2022-09-17T13:57:58;14.95;;;2.67;;
11187;SDS011;5650;52.700;7.306;2022-09-17T14:09:34;10.57;;;2.50;;
11187;SDS011;5650;52.700;7.306;2022-09-17T14:15:33;12.88;;;2.78;;
11187;SDS011;5650;52.700;7.306;2022-09-17T14:18:33;9.70;;;2.25;;
11187;SDS011;5650;52.700;7.306;2022-09-17T14:21:31;11.52;;;2.60;;
11187;SDS011;5650;52.700;7.306;2022-09-17T14:24:01;8.80;;;2.35;;
11187;SDS011;5650;52.700;7.306;2022-09-17T14:26:42;12.15;;;2.50;;
11187;SDS011;5650;52.700;7.306;2022-09-17T14:29:37;12.35;;;2.45;;
11187;SDS011;5650;52.700;7.306;2022-09-17T14:32:17;11.95;;;2.42;;
11187;SDS011;5650;52.700;7.306;2022-09-17T14:34:47;11.00;;;2.50;;
11187;SDS011;5650;52.700;7.306;2022-09-17T14:37:16;12.00;;;2.60;;
11187;SDS011;5650;52.700;7.306;2022-09-17T14:39:47;10.20;;;2.58;;
11187;SDS011;5650;52.700;7.306;2022-09-17T14:42:17;12.57;;;3.05;;
11187;SDS011;5650;52.700;7.306;2022-09-17T14:44:50;9.13;;;2.28;;
11187;SDS011;5650;52.700;7.306;2022-09-17T14:47:23;12.88;;;2.58;;
11187;SDS011;5650;52.700;7.306;2022-09-17T14:49:51;14.50;;;3.22;;
11187;SDS011;5650;52.700;7.306;2022-09-17T14:52:22;13.48;;;3.20;;
11187;SDS011;5650;52.700;7.306;2022-09-17T14:57:54;14.07;;;3.38;;
11187;SDS011;5650;52.700;7.306;2022-09-17T15:00:23;18.42;;;3.40;;
11187;SDS011;5650;52.700;7.306;2022-09-17T15:02:51;10.38;;;2.85;;
11187;SDS011;5650;52.700;7.306;2022-09-17T15:05:24;15.05;;;3.25;;
11187;SDS011;5650;52.700;7.306;2022-09-17T15:08:10;14.57;;;2.83;;
11187;SDS011;5650;52.700;7.306;2022-09-17T15:10:45;19.02;;;2.88;;
11187;SDS011;5650;52.700;7.306;2022-09-17T15:13:15;9.93;;;2.42;;
11187;SDS011;5650;52.700;7.306;2022-09-17T15:15:52;10.00;;;2.53;;
11187;SDS011;5650;52.700;7.306;2022-09-17T15:18:29;12.50;;;2.58;;
11187;SDS011;5650;52.700;7.306;2022-09-17T15:21:00;13.13;;;2.85;;
11187;SDS011;5650;52.700;7.306;2022-09-17T15:23:30;9.60;;;2.60;;
11187;SDS011;5650;52.700;7.306;2022-09-17T15:26:01;11.85;;;2.47;;
11187;SDS011;5650;52.700;7.306;2022-09-17T15:28:30;11.25;;;2.53;;
11187;SDS011;5650;52.700;7.306;2022-09-17T15:31:02;13.52;;;2.67;;
11187;SDS011;5650;52.700;7.306;2022-09-17T15:33:30;11.63;;;2.78;;
11187;SDS011;5650;52.700;7.306;2022-09-17T15:36:00;8.60;;;2.53;;
11187;SDS011;5650;52.700;7.306;2022-09-17T15:38:35;15.90;;;3.13;;
11187;SDS011;5650;52.700;7.306;2022-09-17T15:44:05;15.45;;;2.92;;
11187;SDS011;5650;52.700;7.306;2022-09-17T15:46:33;15.48;;;2.67;;
11187;SDS011;5650;52.700;7.306;2022-09-17T15:49:01;15.38;;;2.42;;
11187;SDS011;5650;52.700;7.306;2022-09-17T15:51:29;10.85;;;2.15;;
11187;SDS011;5650;52.700;7.306;2022-09-17T15:53:58;11.02;;;2.78;;
11187;SDS011;5650;52.700;7.306;2022-09-17T15:56:29;9.23;;;2.67;;
11187;SDS011;5650;52.700;7.306;2022-09-17T15:58:59;9.98;;;2.65;;
11187;SDS011;5650;52.700;7.306;2022-09-17T16:04:24;14.13;;;2.58;;
11187;SDS011;5650;52.700;7.306;2022-09-17T16:06:56;12.30;;;3.05;;
11187;SDS011;5650;52.700;7.306;2022-09-17T16:12:16;11.48;;;2.25;;
11187;SDS011;5650;52.700;7.306;2022-09-17T16:14:45;8.50;;;1.85;;
11187;SDS011;5650;52.700;7.306;2022-09-17T16:17:19;11.90;;;2.40;;